Time;durP1;ratioP1;P1;durP2;ratioP2;P2;SDS_P1;SDS_P2;PMS_P1;PMS_P2;Temp;Humidity;BMP_temperature;BMP_pressure;BME280_temperature;BME280_humidity;BME280_pressure;Samples;Min_cycle;Max_cycle;Signal;HPM_P1;HPM_P2
2022/12/07 00:01:06;;;;;;;;;;;28.70;81.50;;;;;;5081348;28;20005;-74
2022/12/07 00:03:32;;;;;;;;;;;28.60;81.00;;;;;;5094401;28;20286;-73
2022/12/07 00:05:59;;;;;;;;;;;28.30;80.60;;;;;;5085209;28;19916;-72
2022/12/07 00:08:26;;;;;;;;;;;28.20;81.20;;;;;;5076851;28;19920;-73
2022/12/07 00:10:53;;;;;;;;;;;28.20;81.30;;;;;;5078724;28;19913;-75
2022/12/07 00:13:20;;;;;;;;;;;28.10;81.40;;;;;;5079097;28;19941;-73
2022/12/07 00:15:47;;;;;;;;;;;28.00;80.60;;;;;;5089915;28;19939;-74
2022/12/07 00:18:13;;;;;;;;;;;27.90;81.90;;;;;;5087187;28;19928;-74
2022/12/07 00:20:40;;;;;;;;;;;28.10;82.30;;;;;;5090113;28;19972;-73
2022/12/07 00:23:06;;;;;;;;;;;28.10;82.20;;;;;;5080906;28;19913;-73
2022/12/07 00:25:33;;;;;;;;;;;28.10;81.10;;;;;;5073676;28;20252;-73
2022/12/07 00:28:00;;;;;;;;;;;27.90;81.10;;;;;;5087204;28;20034;-73
2022/12/07 00:30:27;;;;;;;;;;;27.70;82.00;;;;;;5077501;28;20260;-73
2022/12/07 00:32:53;;;;;;;;;;;27.80;81.30;;;;;;5089835;28;20260;-74
2022/12/07 00:35:20;;;;;;;;;;;27.90;80.00;;;;;;5085678;28;19926;-72
2022/12/07 00:37:47;;;;;;;;;;;28.10;80.80;;;;;;5089792;28;19916;-73
2022/12/07 00:40:13;;;;;;;;;;;28.10;81.40;;;;;;5092322;28;20335;-72
2022/12/07 00:42:40;;;;;;;;;;;28.10;79.60;;;;;;5092039;28;19919;-71
2022/12/07 00:45:07;;;;;;;;;;;28.20;79.90;;;;;;5079223;28;19913;-73
2022/12/07 00:47:33;;;;;;;;;;;28.20;80.40;;;;;;5086797;28;19916;-74
2022/12/07 00:50:00;;;;;;;;;;;28.40;80.00;;;;;;5085719;28;20376;-74
2022/12/07 00:52:27;;;;;;;;;;;28.60;79.00;;;;;;5084018;28;19913;-74
2022/12/07 00:54:53;;;;;;;;;;;28.70;77.20;;;;;;5084162;28;19916;-74
2022/12/07 00:57:20;;;;;;;;;;;28.80;75.20;;;;;;5082601;28;20401;-72
2022/12/07 00:59:48;;;;;;;;;;;28.80;75.00;;;;;;5093914;28;19912;-72
2022/12/07 01:02:15;;;;;;;;;;;28.90;76.70;;;;;;5082721;28;20282;-75
2022/12/07 01:04:41;;;;;;;;;;;29.10;75.10;;;;;;5079643;28;19912;-73
2022/12/07 01:07:08;;;;;;;;;;;29.30;75.80;;;;;;5080921;28;19931;-75
2022/12/07 01:09:35;;;;;;;;;;;29.20;76.30;;;;;;5081913;28;19916;-74
2022/12/07 01:12:02;;;;;;;;;;;29.10;75.90;;;;;;5078148;28;19912;-74
2022/12/07 01:14:29;;;;;;;;;;;29.00;76.50;;;;;;5072314;28;20375;-75
2022/12/07 01:16:56;;;;;;;;;;;29.10;77.80;;;;;;5077595;28;19916;-75
2022/12/07 01:19:22;;;;;;;;;;;29.30;78.30;;;;;;5091434;28;19924;-74
2022/12/07 01:21:49;;;;;;;;;;;29.60;76.80;;;;;;5088205;28;19978;-75
2022/12/07 01:24:16;;;;;;;;;;;29.60;76.60;;;;;;5088147;28;19916;-74
2022/12/07 01:26:42;;;;;;;;;;;29.60;77.30;;;;;;5085162;28;20362;-74
2022/12/07 01:29:09;;;;;;;;;;;29.60;78.10;;;;;;5076765;28;19920;-74
2022/12/07 01:31:36;;;;;;;;;;;29.50;77.70;;;;;;5075008;28;19912;-75
2022/12/07 01:34:03;;;;;;;;;;;29.50;77.80;;;;;;5086771;28;20019;-76
2022/12/07 01:36:34;;;;;;;;;;;29.50;78.60;;;;;;5091587;28;19973;-75
2022/12/07 01:39:03;;;;;;;;;;;29.50;78.10;;;;;;5085605;28;20550;-74
2022/12/07 01:41:31;;;;;;;;;;;29.40;78.60;;;;;;5074349;28;19917;-75
2022/12/07 01:44:18;;;;;;;;;;;29.50;76.90;;;;;;5078014;28;20275;-74
2022/12/07 01:46:49;;;;;;;;;;;29.40;75.40;;;;;;5077196;28;19912;-75
2022/12/07 01:49:32;;;;;;;;;;;29.20;76.40;;;;;;5079016;28;19916;-74
2022/12/07 01:52:04;;;;;;;;;;;29.00;76.50;;;;;;5077631;28;19912;-73
2022/12/07 01:54:31;;;;;;;;;;;28.90;76.50;;;;;;5088914;28;19912;-74
2022/12/07 01:56:58;;;;;;;;;;;29.00;77.10;;;;;;5081620;28;19965;-73
2022/12/07 01:59:26;;;;;;;;;;;29.00;76.60;;;;;;5072201;28;20390;-73
2022/12/07 02:01:54;;;;;;;;;;;29.10;75.80;;;;;;5080175;28;20456;-73
2022/12/07 02:04:21;;;;;;;;;;;29.20;75.90;;;;;;5080005;28;19919;-73
2022/12/07 02:06:48;;;;;;;;;;;29.30;75.50;;;;;;5075577;28;20065;-73
2022/12/07 02:09:15;;;;;;;;;;;29.40;76.00;;;;;;5069262;28;20004;-72
2022/12/07 02:11:42;;;;;;;;;;;29.40;73.70;;;;;;5074923;28;20355;-71
2022/12/07 02:14:09;;;;;;;;;;;29.30;73.70;;;;;;5073879;28;19970;-71
2022/12/07 02:16:49;;;;;;;;;;;29.20;73.60;;;;;;5077703;28;19925;-72
2022/12/07 02:19:25;;;;;;;;;;;29.10;72.60;;;;;;5079597;28;20152;-70
2022/12/07 02:22:18;;;;;;;;;;;28.90;72.00;;;;;;5077562;28;20367;-72
2022/12/07 02:25:03;;;;;;;;;;;28.90;72.20;;;;;;5084364;28;19916;-74
2022/12/07 02:27:59;;;;;;;;;;;28.80;72.00;;;;;;5075942;28;19973;-73
2022/12/07 02:30:28;;;;;;;;;;;28.80;71.10;;;;;;5029249;28;19917;-73
2022/12/07 02:33:05;;;;;;;;;;;28.70;70.30;;;;;;5072956;28;19919;-73
2022/12/07 02:35:31;;;;;;;;;;;28.60;69.70;;;;;;5075758;28;19928;-72
2022/12/07 02:38:13;;;;;;;;;;;28.50;69.30;;;;;;5072136;28;19951;-73
2022/12/07 02:40:40;;;;;;;;;;;28.40;69.40;;;;;;5076863;28;19924;-72
2022/12/07 02:43:17;;;;;;;;;;;28.30;68.80;;;;;;5076819;28;19940;-72
2022/12/07 02:45:45;;;;;;;;;;;28.20;68.10;;;;;;5079859;28;20443;-72
2022/12/07 02:48:14;;;;;;;;;;;28.10;68.30;;;;;;5078879;28;19919;-73
2022/12/07 02:50:44;;;;;;;;;;;28.10;68.40;;;;;;5082744;28;20340;-72
2022/12/07 02:53:29;;;;;;;;;;;28.10;67.20;;;;;;5070214;28;20368;-71
2022/12/07 02:55:56;;;;;;;;;;;28.10;66.70;;;;;;5077788;28;19917;-72
2022/12/07 02:58:42;;;;;;;;;;;28.10;64.50;;;;;;5079772;28;19953;-71
2022/12/07 03:01:26;;;;;;;;;;;28.00;63.30;;;;;;5085635;28;19930;-71
2022/12/07 03:04:07;;;;;;;;;;;28.00;61.80;;;;;;5071513;28;20031;-72
2022/12/07 03:06:38;;;;;;;;;;;27.90;61.80;;;;;;5070930;28;19912;-74
2022/12/07 03:09:11;;;;;;;;;;;28.00;61.20;;;;;;5083018;28;19912;-73
2022/12/07 03:11:47;;;;;;;;;;;28.10;60.90;;;;;;5076833;28;20333;-73
2022/12/07 03:14:19;;;;;;;;;;;28.10;60.50;;;;;;5073077;28;19916;-72
2022/12/07 03:16:52;;;;;;;;;;;28.20;60.50;;;;;;5073123;28;19920;-74
2022/12/07 03:19:22;;;;;;;;;;;28.20;60.80;;;;;;5082601;28;19931;-73
2022/12/07 03:21:54;;;;;;;;;;;28.10;60.40;;;;;;5078300;28;20401;-71
2022/12/07 03:24:26;;;;;;;;;;;28.10;60.60;;;;;;5083684;28;19912;-72
2022/12/07 03:26:56;;;;;;;;;;;28.10;60.50;;;;;;5082261;28;19920;-72
2022/12/07 03:29:28;;;;;;;;;;;28.10;60.90;;;;;;5077124;28;19920;-73
2022/12/07 03:32:12;;;;;;;;;;;28.00;60.50;;;;;;5071685;28;19939;-73
2022/12/07 03:34:45;;;;;;;;;;;28.00;61.10;;;;;;5067924;28;20646;-73
2022/12/07 03:37:15;;;;;;;;;;;28.00;60.20;;;;;;5078953;28;19955;-72
2022/12/07 03:39:48;;;;;;;;;;;27.90;58.80;;;;;;5077530;28;19973;-72
2022/12/07 03:42:14;;;;;;;;;;;27.90;58.80;;;;;;5074440;28;19982;-73
2022/12/07 03:44:42;;;;;;;;;;;27.80;59.10;;;;;;5067184;28;19912;-72
2022/12/07 03:47:26;;;;;;;;;;;27.90;59.60;;;;;;5082089;28;20279;-71
2022/12/07 03:49:53;;;;;;;;;;;27.90;58.60;;;;;;5075055;28;20479;-73
2022/12/07 03:52:29;;;;;;;;;;;27.80;58.50;;;;;;5078280;28;19964;-74
2022/12/07 03:55:01;;;;;;;;;;;27.70;59.00;;;;;;5073713;28;19999;-73
2022/12/07 03:57:29;;;;;;;;;;;27.60;58.40;;;;;;5075562;28;19912;-74
2022/12/07 03:59:57;;;;;;;;;;;27.40;58.30;;;;;;5073143;28;19935;-75
2022/12/07 04:02:25;;;;;;;;;;;27.30;58.60;;;;;;5068373;28;19920;-72
2022/12/07 04:04:52;;;;;;;;;;;27.20;58.30;;;;;;5087019;28;20424;-72
2022/12/07 04:07:19;;;;;;;;;;;27.20;58.20;;;;;;5071237;28;19917;-73
2022/12/07 04:09:46;;;;;;;;;;;27.10;56.40;;;;;;5079415;28;19913;-72
2022/12/07 04:12:12;;;;;;;;;;;27.00;56.70;;;;;;5078958;28;19920;-73
2022/12/07 04:14:39;;;;;;;;;;;27.00;56.50;;;;;;5079976;28;19916;-72
2022/12/07 04:17:06;;;;;;;;;;;26.90;56.60;;;;;;5084713;28;20506;-73
2022/12/07 04:19:33;;;;;;;;;;;26.90;56.60;;;;;;5082666;28;19935;-68
2022/12/07 04:22:01;;;;;;;;;;;26.90;58.10;;;;;;5079988;28;20054;-72
2022/12/07 04:24:28;;;;;;;;;;;26.90;58.70;;;;;;5088073;28;19920;-71
2022/12/07 04:26:54;;;;;;;;;;;26.90;59.60;;;;;;5077116;28;19915;-72
2022/12/07 04:29:21;;;;;;;;;;;26.90;59.50;;;;;;5084449;28;20371;-74
2022/12/07 04:31:48;;;;;;;;;;;26.90;59.80;;;;;;5081061;28;20260;-73
2022/12/07 04:34:16;;;;;;;;;;;26.90;59.90;;;;;;5075259;28;19924;-73
2022/12/07 04:36:42;;;;;;;;;;;26.90;60.30;;;;;;5077574;28;20031;-74
2022/12/07 04:39:17;;;;;;;;;;;26.90;60.90;;;;;;5074728;28;19931;-77
2022/12/07 04:41:44;;;;;;;;;;;26.90;61.10;;;;;;5087061;28;19955;-74
2022/12/07 04:44:11;;;;;;;;;;;26.90;61.60;;;;;;5081785;28;20328;-73
2022/12/07 04:46:38;;;;;;;;;;;26.90;62.10;;;;;;5083013;28;20282;-74
2022/12/07 04:49:05;;;;;;;;;;;26.90;62.00;;;;;;5074872;28;19966;-73
2022/12/07 04:51:32;;;;;;;;;;;26.90;62.10;;;;;;5076581;28;20487;-75
2022/12/07 04:53:59;;;;;;;;;;;26.90;61.80;;;;;;5082754;28;20420;-73
2022/12/07 04:56:25;;;;;;;;;;;26.90;61.70;;;;;;5076091;28;19916;-75
2022/12/07 04:58:53;;;;;;;;;;;26.90;61.40;;;;;;5082605;28;20001;-74
2022/12/07 05:01:20;;;;;;;;;;;26.90;61.60;;;;;;5078377;28;19977;-74
2022/12/07 05:03:47;;;;;;;;;;;26.90;61.50;;;;;;5070867;28;20854;-74
2022/12/07 05:06:14;;;;;;;;;;;26.80;61.70;;;;;;5080017;28;19916;-71
2022/12/07 05:08:42;;;;;;;;;;;26.80;61.50;;;;;;5075342;28;20429;-74
2022/12/07 05:11:09;;;;;;;;;;;26.70;61.90;;;;;;5084961;28;19912;-72
2022/12/07 05:13:36;;;;;;;;;;;26.50;62.20;;;;;;5073580;28;19936;-72
2022/12/07 05:16:03;;;;;;;;;;;26.50;62.00;;;;;;5074790;28;19920;-73
2022/12/07 05:18:30;;;;;;;;;;;26.40;62.20;;;;;;5074054;28;19916;-72
2022/12/07 05:20:56;;;;;;;;;;;26.30;62.20;;;;;;5094024;28;19912;-73
2022/12/07 05:23:23;;;;;;;;;;;26.20;62.90;;;;;;5080282;28;19923;-73
2022/12/07 05:25:50;;;;;;;;;;;26.10;63.20;;;;;;5083430;28;19916;-73
2022/12/07 05:28:16;;;;;;;;;;;26.10;63.40;;;;;;5085020;28;20003;-71
2022/12/07 05:30:43;;;;;;;;;;;26.10;63.60;;;;;;5082214;28;19985;-73
2022/12/07 05:33:10;;;;;;;;;;;26.00;64.00;;;;;;5080814;28;20011;-74
2022/12/07 05:35:37;;;;;;;;;;;26.00;64.00;;;;;;5074638;28;20352;-72
2022/12/07 05:38:04;;;;;;;;;;;25.90;64.40;;;;;;5080011;28;19920;-75
2022/12/07 05:40:31;;;;;;;;;;;25.80;64.60;;;;;;5071273;28;19912;-73
2022/12/07 05:42:57;;;;;;;;;;;25.80;65.20;;;;;;5071843;28;20378;-74
2022/12/07 05:45:24;;;;;;;;;;;25.70;65.60;;;;;;5079460;28;19913;-73
2022/12/07 05:47:51;;;;;;;;;;;25.60;66.20;;;;;;5074286;28;19919;-71
2022/12/07 05:50:17;;;;;;;;;;;25.60;66.50;;;;;;5083948;28;19924;-72
2022/12/07 05:52:44;;;;;;;;;;;25.60;67.00;;;;;;5077715;28;20008;-73
2022/12/07 05:55:11;;;;;;;;;;;25.50;67.30;;;;;;5072100;28;19916;-72
2022/12/07 05:57:37;;;;;;;;;;;25.50;67.70;;;;;;5068627;28;20362;-73
2022/12/07 06:00:05;;;;;;;;;;;25.50;68.30;;;;;;5075045;28;19916;-75
2022/12/07 06:02:31;;;;;;;;;;;25.50;68.70;;;;;;5073307;28;19920;-73
2022/12/07 06:04:58;;;;;;;;;;;25.50;69.00;;;;;;5072618;28;20293;-75
2022/12/07 06:07:25;;;;;;;;;;;25.50;69.50;;;;;;5074385;28;19935;-74
2022/12/07 06:09:52;;;;;;;;;;;25.40;69.80;;;;;;5073544;28;19923;-72
2022/12/07 06:12:34;;;;;;;;;;;25.40;70.60;;;;;;5081559;28;19912;-73
2022/12/07 06:15:01;;;;;;;;;;;25.30;70.20;;;;;;5070708;28;19917;-74
2022/12/07 06:17:27;;;;;;;;;;;25.30;70.60;;;;;;5074044;28;19924;-72
2022/12/07 06:19:54;;;;;;;;;;;25.20;71.60;;;;;;5073946;28;19916;-73
2022/12/07 06:22:21;;;;;;;;;;;25.20;72.20;;;;;;5078832;28;19913;-74
2022/12/07 06:24:47;;;;;;;;;;;25.10;72.50;;;;;;5073370;28;20397;-72
2022/12/07 06:27:14;;;;;;;;;;;25.00;73.00;;;;;;5080305;28;20046;-72
2022/12/07 06:29:41;;;;;;;;;;;25.00;73.30;;;;;;5069811;28;19920;-72
2022/12/07 06:32:08;;;;;;;;;;;25.00;73.50;;;;;;5070952;28;19916;-73
2022/12/07 06:34:35;;;;;;;;;;;25.10;74.00;;;;;;5083180;28;20356;-73
2022/12/07 06:37:01;;;;;;;;;;;25.10;73.90;;;;;;5075238;28;19916;-75
2022/12/07 06:39:29;;;;;;;;;;;25.10;74.40;;;;;;5067956;28;19977;-71
2022/12/07 06:41:55;;;;;;;;;;;25.10;75.60;;;;;;5078024;28;19916;-72
2022/12/07 06:44:22;;;;;;;;;;;25.00;76.70;;;;;;5069713;28;19919;-72
2022/12/07 06:46:50;;;;;;;;;;;24.90;77.50;;;;;;5070461;28;19919;-71
2022/12/07 06:49:16;;;;;;;;;;;24.70;78.10;;;;;;5071890;28;19954;-74
2022/12/07 06:51:43;;;;;;;;;;;24.60;78.60;;;;;;5071869;28;19916;-72
2022/12/07 06:54:11;;;;;;;;;;;24.60;79.10;;;;;;5073323;28;19920;-72
2022/12/07 06:56:38;;;;;;;;;;;24.50;79.30;;;;;;5074430;28;20367;-71
2022/12/07 06:59:06;;;;;;;;;;;24.50;79.60;;;;;;5103467;27;21771;-71
2022/12/07 07:01:33;;;;;;;;;;;24.50;80.00;;;;;;5075015;28;20007;-72
2022/12/07 07:04:00;;;;;;;;;;;24.50;80.10;;;;;;5071483;28;19955;-71
2022/12/07 07:06:27;;;;;;;;;;;24.40;80.20;;;;;;5072026;28;20355;-70
2022/12/07 07:08:54;;;;;;;;;;;24.40;80.20;;;;;;5071294;28;19916;-72
2022/12/07 07:11:20;;;;;;;;;;;24.30;80.10;;;;;;5074584;28;20390;-69
2022/12/07 07:13:47;;;;;;;;;;;24.30;80.40;;;;;;5075861;28;20011;-73
2022/12/07 07:16:14;;;;;;;;;;;24.30;80.80;;;;;;5079741;28;19912;-70
2022/12/07 07:18:41;;;;;;;;;;;24.20;81.10;;;;;;5078087;28;20344;-72
2022/12/07 07:21:07;;;;;;;;;;;24.20;81.20;;;;;;5080347;28;20262;-74
2022/12/07 07:23:34;;;;;;;;;;;24.10;81.30;;;;;;5085407;28;19982;-73
2022/12/07 07:26:01;;;;;;;;;;;24.10;82.20;;;;;;5087814;28;19962;-73
2022/12/07 07:28:27;;;;;;;;;;;24.00;81.90;;;;;;5081669;28;19960;-71
2022/12/07 07:30:54;;;;;;;;;;;23.90;81.90;;;;;;5082382;28;20526;-73
2022/12/07 07:33:21;;;;;;;;;;;24.00;82.20;;;;;;5087355;28;19935;-74
2022/12/07 07:35:47;;;;;;;;;;;23.90;82.30;;;;;;5074514;28;20294;-73
2022/12/07 07:38:14;;;;;;;;;;;23.90;82.30;;;;;;5088937;28;19916;-74
2022/12/07 07:40:41;;;;;;;;;;;23.90;82.40;;;;;;5075304;28;19993;-73
2022/12/07 07:43:08;;;;;;;;;;;23.90;82.40;;;;;;5088252;28;19912;-75
2022/12/07 07:45:34;;;;;;;;;;;23.90;82.60;;;;;;5085126;28;20385;-75
2022/12/07 07:48:01;;;;;;;;;;;23.90;82.70;;;;;;5088209;28;20014;-73
2022/12/07 07:50:28;;;;;;;;;;;23.80;82.90;;;;;;5074863;28;20367;-74
2022/12/07 07:52:55;;;;;;;;;;;23.80;83.10;;;;;;5095410;28;19970;-74
2022/12/07 07:55:21;;;;;;;;;;;23.80;83.30;;;;;;5092859;28;19919;-73
2022/12/07 07:57:48;;;;;;;;;;;23.70;83.40;;;;;;5089624;28;19976;-73
2022/12/07 08:00:15;;;;;;;;;;;23.70;83.70;;;;;;5077922;28;19916;-74
2022/12/07 08:02:46;;;;;;;;;;;23.70;83.80;;;;;;5094367;28;19914;-73
2022/12/07 08:05:13;;;;;;;;;;;23.70;84.00;;;;;;5075801;28;19913;-73
2022/12/07 08:07:40;;;;;;;;;;;23.70;84.20;;;;;;5074214;28;20374;-75
2022/12/07 08:10:07;;;;;;;;;;;23.70;84.30;;;;;;5076324;28;19927;-73
2022/12/07 08:13:10;;;;;;;;;;;23.60;84.30;;;;;;5083149;28;19916;-72
2022/12/07 08:15:24;;;;;;;;;;;23.60;84.60;;;;;;5083709;28;19916;-76
2022/12/07 08:17:51;;;;;;;;;;;23.60;84.70;;;;;;5072848;28;20351;-74
2022/12/07 08:20:18;;;;;;;;;;;23.60;84.70;;;;;;5073464;28;19924;-72
2022/12/07 08:22:44;;;;;;;;;;;23.60;84.80;;;;;;5087729;28;19987;-74
2022/12/07 08:25:11;;;;;;;;;;;23.50;85.00;;;;;;5074317;28;19916;-74
2022/12/07 08:27:38;;;;;;;;;;;23.50;85.10;;;;;;5090167;28;20019;-73
2022/12/07 08:30:05;;;;;;;;;;;23.40;85.00;;;;;;5088072;28;19923;-73
2022/12/07 08:32:31;;;;;;;;;;;23.40;85.30;;;;;;5084852;28;19999;-75
2022/12/07 08:34:58;;;;;;;;;;;23.40;85.40;;;;;;5096763;28;19920;-72
2022/12/07 08:37:25;;;;;;;;;;;23.30;85.50;;;;;;5091643;28;19959;-73
2022/12/07 08:39:52;;;;;;;;;;;23.30;85.70;;;;;;5093175;28;19969;-73
2022/12/07 08:42:18;;;;;;;;;;;23.30;86.00;;;;;;5087703;28;19912;-74
2022/12/07 08:44:46;;;;;;;;;;;23.20;86.10;;;;;;5089523;28;19929;-74
2022/12/07 08:47:12;;;;;;;;;;;23.20;86.30;;;;;;5089470;28;20306;-73
2022/12/07 08:49:46;;;;;;;;;;;23.10;86.40;;;;;;5088137;28;20221;-72
2022/12/07 08:52:12;;;;;;;;;;;23.10;86.60;;;;;;5074820;28;19985;-73
2022/12/07 08:54:40;;;;;;;;;;;23.00;86.80;;;;;;5089623;28;20547;-73
2022/12/07 08:57:07;;;;;;;;;;;22.90;87.20;;;;;;5082998;28;20597;-73
2022/12/07 08:59:35;;;;;;;;;;;22.90;87.20;;;;;;5083456;28;19923;-74
2022/12/07 09:02:01;;;;;;;;;;;22.90;87.10;;;;;;5085477;28;19916;-74
2022/12/07 09:04:28;;;;;;;;;;;22.80;87.30;;;;;;5077469;28;19912;-74
2022/12/07 09:06:55;;;;;;;;;;;22.80;87.50;;;;;;5082433;28;19913;-74
2022/12/07 09:09:22;;;;;;;;;;;22.80;87.70;;;;;;5088463;28;19942;-72
2022/12/07 09:11:49;;;;;;;;;;;22.80;87.80;;;;;;5074074;28;19915;-74
2022/12/07 09:14:17;;;;;;;;;;;22.80;88.20;;;;;;5090332;28;20392;-73
2022/12/07 09:16:43;;;;;;;;;;;22.80;88.20;;;;;;5078749;28;19948;-73
2022/12/07 09:19:10;;;;;;;;;;;22.70;88.70;;;;;;5088229;28;19924;-74
2022/12/07 09:21:37;;;;;;;;;;;22.60;89.00;;;;;;5082873;28;20657;-74
2022/12/07 09:24:03;;;;;;;;;;;22.60;89.10;;;;;;5074196;28;20012;-72
2022/12/07 09:26:30;;;;;;;;;;;22.50;89.20;;;;;;5073754;28;19909;-74
2022/12/07 09:28:57;;;;;;;;;;;22.50;89.80;;;;;;5074022;28;19913;-75
2022/12/07 09:31:23;;;;;;;;;;;22.40;90.10;;;;;;5073376;28;20270;-75
2022/12/07 09:33:58;;;;;;;;;;;22.40;90.40;;;;;;5075443;28;19970;-75
2022/12/07 09:36:25;;;;;;;;;;;22.40;90.50;;;;;;5088740;28;19920;-77
2022/12/07 09:38:52;;;;;;;;;;;22.30;90.40;;;;;;5091420;28;19920;-74
2022/12/07 09:41:19;;;;;;;;;;;22.30;90.50;;;;;;5075339;28;19916;-73
2022/12/07 09:43:46;;;;;;;;;;;22.30;90.50;;;;;;5076533;28;19966;-74
2022/12/07 09:46:15;;;;;;;;;;;22.20;90.50;;;;;;5088925;28;19920;-74
2022/12/07 09:48:42;;;;;;;;;;;22.20;90.50;;;;;;5093615;28;19959;-74
2022/12/07 09:51:20;;;;;;;;;;;22.20;90.40;;;;;;5084492;28;19916;-73
2022/12/07 09:53:47;;;;;;;;;;;22.20;90.30;;;;;;5073676;28;19912;-76
2022/12/07 09:56:14;;;;;;;;;;;22.30;90.30;;;;;;5076652;28;19951;-73
2022/12/07 09:58:42;;;;;;;;;;;22.30;90.10;;;;;;5091026;28;19923;-72
2022/12/07 10:01:08;;;;;;;;;;;22.30;90.10;;;;;;5080034;28;19912;-74
2022/12/07 10:03:35;;;;;;;;;;;22.40;90.00;;;;;;5083740;28;19912;-75
2022/12/07 10:06:02;;;;;;;;;;;22.30;90.10;;;;;;5087890;28;20370;-75
2022/12/07 10:08:29;;;;;;;;;;;22.30;90.20;;;;;;5080304;28;19913;-75
2022/12/07 10:10:56;;;;;;;;;;;22.30;90.40;;;;;;5082621;28;19952;-75
2022/12/07 10:13:34;;;;;;;;;;;22.30;90.40;;;;;;5073766;28;19959;-75
2022/12/07 10:16:01;;;;;;;;;;;22.20;90.40;;;;;;5085922;28;19919;-74
2022/12/07 10:18:31;;;;;;;;;;;22.20;90.20;;;;;;5077200;28;19913;-74
2022/12/07 10:21:03;;;;;;;;;;;22.20;90.10;;;;;;5087135;28;19955;-74
2022/12/07 10:23:29;;;;;;;;;;;22.20;90.20;;;;;;5072215;28;19908;-74
2022/12/07 10:25:56;;;;;;;;;;;22.30;90.20;;;;;;5073297;28;19916;-73
2022/12/07 10:28:23;;;;;;;;;;;22.20;90.10;;;;;;5082089;28;19918;-74
2022/12/07 10:30:58;;;;;;;;;;;22.20;90.20;;;;;;5071606;28;19920;-74
2022/12/07 10:33:28;;;;;;;;;;;22.30;90.20;;;;;;5079220;28;19928;-73
2022/12/07 10:35:55;;;;;;;;;;;22.30;90.20;;;;;;5075626;28;19924;-72
2022/12/07 10:38:22;;;;;;;;;;;22.20;90.20;;;;;;5087290;28;19928;-76
2022/12/07 10:41:02;;;;;;;;;;;22.20;90.00;;;;;;5088248;28;19924;-75
2022/12/07 10:43:29;;;;;;;;;;;22.20;90.10;;;;;;5081224;28;19919;-75
2022/12/07 10:46:02;;;;;;;;;;;22.20;90.10;;;;;;5077748;28;20426;-75
2022/12/07 10:48:31;;;;;;;;;;;22.10;90.10;;;;;;5081767;28;19912;-74
2022/12/07 10:51:07;;;;;;;;;;;22.10;90.10;;;;;;5079433;28;19913;-75
2022/12/07 10:53:34;;;;;;;;;;;22.00;90.30;;;;;;5087003;28;19959;-71
2022/12/07 10:56:00;;;;;;;;;;;21.90;90.30;;;;;;5076760;28;20015;-74
2022/12/07 10:58:30;;;;;;;;;;;21.90;90.40;;;;;;5086518;28;19919;-74
2022/12/07 11:01:19;;;;;;;;;;;21.80;90.60;;;;;;5088074;28;20350;-75
2022/12/07 11:03:53;;;;;;;;;;;21.80;90.60;;;;;;5089008;28;19953;-74
2022/12/07 11:06:23;;;;;;;;;;;21.80;90.80;;;;;;5090808;28;19919;-73
2022/12/07 11:08:51;;;;;;;;;;;21.70;90.90;;;;;;5082740;28;20412;-74
2022/12/07 11:11:20;;;;;;;;;;;21.70;91.00;;;;;;5076649;28;19919;-74
2022/12/07 11:14:00;;;;;;;;;;;21.70;91.20;;;;;;5090394;28;19969;-74
2022/12/07 11:16:45;;;;;;;;;;;21.60;91.30;;;;;;5088959;28;20243;-73
2022/12/07 11:19:30;;;;;;;;;;;21.50;91.40;;;;;;5075226;28;19921;-74
2022/12/07 11:21:59;;;;;;;;;;;21.50;91.40;;;;;;5076148;28;19920;-73
2022/12/07 11:24:30;;;;;;;;;;;21.50;91.50;;;;;;5091897;28;19912;-74
2022/12/07 11:27:13;;;;;;;;;;;21.50;91.70;;;;;;5086057;28;19912;-73
2022/12/07 11:29:39;;;;;;;;;;;21.50;91.80;;;;;;5094951;28;20221;-74
2022/12/07 11:32:09;;;;;;;;;;;21.40;91.90;;;;;;5091978;28;20262;-74
2022/12/07 11:34:48;;;;;;;;;;;21.40;91.90;;;;;;5103700;28;19911;-75
2022/12/07 11:37:17;;;;;;;;;;;21.30;92.00;;;;;;5079795;28;19931;-75
2022/12/07 11:39:50;;;;;;;;;;;21.30;91.80;;;;;;5092378;28;19920;-74
2022/12/07 11:42:21;;;;;;;;;;;21.30;91.60;;;;;;5076618;28;20016;-73
2022/12/07 11:44:54;;;;;;;;;;;21.30;91.50;;;;;;5080657;28;20298;-74
2022/12/07 11:47:21;;;;;;;;;;;21.30;91.30;;;;;;5090422;28;19916;-71
2022/12/07 11:50:23;;;;;;;;;;;21.30;91.40;;;;;;5095992;28;19908;-74
2022/12/07 11:52:54;;;;;;;;;;;21.20;91.50;;;;;;5061728;28;20019;-74
2022/12/07 11:55:29;;;;;;;;;;;21.20;91.50;;;;;;5077604;28;19916;-73
2022/12/07 11:58:01;;;;;;;;;;;21.10;91.60;;;;;;5081532;28;19985;-74
2022/12/07 12:00:28;;;;;;;;;;;21.00;91.60;;;;;;5082413;28;19916;-73
2022/12/07 12:03:10;;;;;;;;;;;21.00;91.70;;;;;;5094319;28;19912;-69
2022/12/07 12:05:39;;;;;;;;;;;20.90;92.10;;;;;;5091216;28;19990;-75
2022/12/07 12:08:18;;;;;;;;;;;20.90;92.10;;;;;;5078647;28;19912;-74
2022/12/07 12:10:45;;;;;;;;;;;20.80;92.10;;;;;;5081956;28;20394;-73
2022/12/07 12:13:36;;;;;;;;;;;20.80;92.10;;;;;;5091859;28;19978;-73
2022/12/07 12:16:02;;;;;;;;;;;20.80;92.20;;;;;;5075866;28;19916;-74
2022/12/07 12:18:38;;;;;;;;;;;20.80;92.10;;;;;;5074436;28;19947;-74
2022/12/07 12:21:08;;;;;;;;;;;20.70;92.00;;;;;;5087848;28;19918;-72
2022/12/07 12:23:38;;;;;;;;;;;20.70;92.00;;;;;;5075784;28;19999;-73
2022/12/07 12:26:06;;;;;;;;;;;20.70;92.00;;;;;;5088946;28;19912;-74
2022/12/07 12:28:50;;;;;;;;;;;20.70;92.20;;;;;;5087900;28;19923;-74
2022/12/07 12:31:32;;;;;;;;;;;20.60;92.20;;;;;;5087103;28;19912;-75
2022/12/07 12:34:00;;;;;;;;;;;20.50;92.40;;;;;;5085041;28;19969;-75
2022/12/07 12:36:35;;;;;;;;;;;20.50;92.40;;;;;;5088298;28;19920;-74
2022/12/07 12:39:08;;;;;;;;;;;20.50;92.50;;;;;;5073875;28;20370;-71
2022/12/07 12:41:39;;;;;;;;;;;20.50;92.50;;;;;;5083687;28;19940;-74
2022/12/07 12:44:20;;;;;;;;;;;20.40;92.50;;;;;;5086389;28;19919;-74
2022/12/07 12:46:47;;;;;;;;;;;20.40;92.70;;;;;;5078671;28;20363;-74
2022/12/07 12:49:17;;;;;;;;;;;20.40;92.50;;;;;;5082429;28;19916;-73
2022/12/07 12:51:46;;;;;;;;;;;20.40;92.40;;;;;;5077065;28;19981;-72
2022/12/07 12:54:25;;;;;;;;;;;20.50;92.50;;;;;;5074417;28;20290;-72
2022/12/07 12:56:57;;;;;;;;;;;20.50;92.60;;;;;;5072881;28;19913;-73
2022/12/07 12:59:24;;;;;;;;;;;20.40;92.60;;;;;;5089058;28;19943;-73
2022/12/07 13:02:14;;;;;;;;;;;20.40;92.80;;;;;;5081257;28;19962;-72
2022/12/07 13:04:50;;;;;;;;;;;20.30;92.80;;;;;;5072739;28;19912;-72
2022/12/07 13:07:50;;;;;;;;;;;20.30;92.90;;;;;;5084177;28;19920;-71
2022/12/07 13:10:35;;;;;;;;;;;20.30;92.90;;;;;;5083520;28;20046;-72
2022/12/07 13:13:11;;;;;;;;;;;20.30;93.00;;;;;;5083145;28;19916;-71
2022/12/07 13:15:39;;;;;;;;;;;20.30;93.10;;;;;;5071867;28;19923;-73
2022/12/07 13:18:08;;;;;;;;;;;20.30;93.10;;;;;;5072851;28;19919;-73
2022/12/07 13:20:55;;;;;;;;;;;20.30;93.20;;;;;;5077782;28;20389;-75
2022/12/07 13:23:25;;;;;;;;;;;20.20;93.30;;;;;;5073347;28;19912;-73
2022/12/07 13:25:52;;;;;;;;;;;20.20;93.40;;;;;;5077126;28;20726;-74
2022/12/07 13:28:20;;;;;;;;;;;20.10;93.40;;;;;;5078351;28;19912;-74
2022/12/07 13:31:12;;;;;;;;;;;20.00;93.70;;;;;;5077264;28;19920;-72
2022/12/07 13:33:47;;;;;;;;;;;20.00;93.90;;;;;;5076352;28;19928;-73
2022/12/07 13:36:19;;;;;;;;;;;19.80;93.90;;;;;;5074811;28;19969;-73
2022/12/07 13:38:50;;;;;;;;;;;19.70;94.40;;;;;;5071781;28;19924;-72
2022/12/07 13:41:18;;;;;;;;;;;19.60;94.50;;;;;;5075060;28;19941;-71
2022/12/07 13:44:00;;;;;;;;;;;19.50;94.80;;;;;;5085762;28;19962;-72
2022/12/07 13:46:31;;;;;;;;;;;19.40;95.00;;;;;;5073823;28;19912;-73
2022/12/07 13:48:58;;;;;;;;;;;19.20;95.00;;;;;;5079510;28;19919;-73
2022/12/07 13:51:26;;;;;;;;;;;19.10;95.40;;;;;;5072307;28;20003;-73
2022/12/07 13:53:59;;;;;;;;;;;19.00;95.70;;;;;;5074012;28;19920;-73
2022/12/07 13:56:33;;;;;;;;;;;19.00;95.80;;;;;;5079598;28;20278;-72
2022/12/07 13:59:00;;;;;;;;;;;18.90;96.10;;;;;;5077334;28;20346;-75
2022/12/07 14:01:28;;;;;;;;;;;18.80;96.40;;;;;;5082935;28;20370;-74
2022/12/07 14:03:55;;;;;;;;;;;18.80;96.40;;;;;;5078473;28;19916;-75
2022/12/07 14:06:28;;;;;;;;;;;18.70;96.50;;;;;;5077650;28;19920;-74
2022/12/07 14:09:26;;;;;;;;;;;18.70;96.70;;;;;;5069673;28;20305;-72
2022/12/07 14:11:55;;;;;;;;;;;18.70;96.70;;;;;;5053763;28;20656;-73
2022/12/07 14:14:27;;;;;;;;;;;18.80;96.60;;;;;;5064107;28;20441;-72
2022/12/07 14:17:01;;;;;;;;;;;18.80;96.50;;;;;;5063854;28;19921;-73
2022/12/07 14:20:00;;;;;;;;;;;18.80;96.60;;;;;;5067891;28;19971;-71
2022/12/07 14:22:34;;;;;;;;;;;18.90;96.60;;;;;;5028706;28;19920;-71
2022/12/07 14:25:09;;;;;;;;;;;18.90;96.40;;;;;;5066037;28;19912;-72
2022/12/07 14:27:36;;;;;;;;;;;19.10;96.30;;;;;;5066424;28;20409;-72
2022/12/07 14:30:04;;;;;;;;;;;19.10;96.30;;;;;;5066871;28;19920;-70
2022/12/07 14:32:31;;;;;;;;;;;19.10;96.30;;;;;;5064638;28;20441;-72